Time;durP1;ratioP1;P1;durP2;ratioP2;P2;SDS_P1;SDS_P2;PMS_P1;PMS_P2;Temp;Humidity;BMP_temperature;BMP_pressure;BME280_temperature;BME280_humidity;BME280_pressure;Samples;Min_cycle;Max_cycle;Signal;HPM_P1;HPM_P2
2020/12/08 00:09:14;;;;;;;46.05;18.80;;;1.40;99.90;;;;;;20920122;28;19966;-78
2020/12/08 00:19:15;;;;;;;42.67;19.30;;;1.40;99.90;;;;;;20916862;28;20032;-78
2020/12/08 00:29:15;;;;;;;;;;;1.30;99.90;;;;;;20931894;28;20052;-79
2020/12/08 00:39:16;;;;;;;43.23;19.23;;;1.30;99.90;;;;;;20926197;28;20337;-78
2020/12/08 00:49:18;;;;;;;44.80;19.00;;;1.30;99.90;;;;;;20936044;28;20037;-78
2020/12/08 00:59:19;;;;;;;44.45;18.13;;;1.30;99.90;;;;;;20897742;28;20052;-78
2020/12/08 01:09:23;;;;;;;42.35;18.35;;;1.20;99.90;;;;;;20913517;28;20060;-78
2020/12/08 01:19:24;;;;;;;48.72;20.05;;;1.10;99.90;;;;;;20912218;28;20037;-78
2020/12/08 01:29:25;;;;;;;35.75;15.48;;;1.10;99.90;;;;;;20913085;28;20048;-78
2020/12/08 01:39:27;;;;;;;39.42;16.40;;;1.20;99.90;;;;;;20918532;28;20053;-77
2020/12/08 01:49:28;;;;;;;39.13;16.67;;;1.20;99.90;;;;;;20939267;28;20033;-77
2020/12/08 01:59:29;;;;;;;37.97;16.20;;;1.10;99.90;;;;;;20926652;28;20448;-79
2020/12/08 02:09:44;;;;;;;27.95;13.20;;;1.20;99.90;;;;;;20910451;28;20494;-78
2020/12/08 02:19:46;;;;;;;28.67;14.80;;;1.20;99.90;;;;;;20925522;28;20025;-78
2020/12/08 02:29:47;;;;;;;29.58;14.70;;;1.10;99.90;;;;;;20925149;28;20112;-79
2020/12/08 02:39:48;;;;;;;28.80;13.40;;;1.20;99.90;;;;;;20923313;28;20119;-79
2020/12/08 02:49:50;;;;;;;37.67;15.10;;;1.10;99.90;;;;;;20923512;28;20021;-78
2020/12/08 02:59:51;;;;;;;28.67;12.88;;;1.10;99.90;;;;;;20921128;28;20037;-78
2020/12/08 03:09:58;;;;;;;32.22;14.23;;;1.10;99.90;;;;;;20921002;28;20033;-78
2020/12/08 03:20:00;;;;;;;30.40;13.90;;;1.00;99.90;;;;;;20905270;28;20108;-79
2020/12/08 03:30:01;;;;;;;27.35;12.77;;;1.10;99.90;;;;;;20935400;28;20029;-79
2020/12/08 03:40:05;;;;;;;26.25;12.68;;;1.10;99.90;;;;;;20924285;28;22466;-77
2020/12/08 03:50:07;;;;;;;27.95;11.27;;;1.10;99.90;;;;;;20920146;28;20075;-77
2020/12/08 04:00:10;;;;;;;30.98;11.65;;;1.10;99.90;;;;;;20930066;28;20035;-77
2020/12/08 04:10:21;;;;;;;24.00;11.97;;;1.10;99.90;;;;;;20919648;28;20087;-77
2020/12/08 04:20:23;;;;;;;27.80;12.75;;;1.10;99.90;;;;;;20926067;28;20526;-77
2020/12/08 04:30:25;;;;;;;22.40;10.85;;;0.90;99.90;;;;;;20956295;28;20496;-77
2020/12/08 04:40:27;;;;;;;29.17;13.68;;;0.90;99.90;;;;;;21001124;28;20238;-77
2020/12/08 04:50:27;;;;;;;28.35;13.25;;;0.80;99.90;;;;;;20989843;28;20526;-77
2020/12/08 05:00:28;;;;;;;40.90;15.98;;;0.80;99.90;;;;;;20995156;28;20021;-77
2020/12/08 05:10:29;;;;;;;33.28;15.05;;;0.90;99.90;;;;;;21007742;28;20375;-77
2020/12/08 05:20:30;;;;;;;42.45;14.93;;;0.90;99.90;;;;;;20997905;28;20047;-77
2020/12/08 05:30:32;;;;;;;30.73;14.27;;;0.90;99.90;;;;;;21004791;28;20491;-76
2020/12/08 05:40:37;;;;;;;34.45;14.70;;;0.90;99.90;;;;;;20994411;28;20499;-76
2020/12/08 05:50:38;;;;;;;36.65;14.82;;;0.70;99.90;;;;;;20992503;28;20399;-76
2020/12/08 06:00:40;;;;;;;38.33;15.88;;;0.60;99.90;;;;;;20994117;28;20020;-76
2020/12/08 06:10:48;;;;;;;42.30;16.88;;;0.60;99.90;;;;;;20993450;28;20052;-76
2020/12/08 06:20:49;;;;;;;38.28;15.75;;;0.60;99.90;;;;;;20991106;28;20119;-76
2020/12/08 06:31:00;;;;;;;40.40;16.88;;;0.60;99.90;;;;;;20990261;28;20059;-76
2020/12/08 06:41:01;;;;;;;37.83;15.37;;;0.60;99.90;;;;;;20971670;28;20037;-76
2020/12/08 06:51:14;;;;;;;41.38;15.95;;;0.60;99.90;;;;;;20989763;28;20278;-76
2020/12/08 07:01:14;;;;;;;43.47;16.85;;;0.60;99.90;;;;;;21000443;28;20486;-76
2020/12/08 07:11:24;;;;;;;47.17;17.52;;;0.60;99.90;;;;;;21003910;28;20105;-76
2020/12/08 07:21:25;;;;;;;38.17;16.10;;;0.50;99.90;;;;;;20985952;28;20051;-77
2020/12/08 07:31:29;;;;;;;;;;;1.60;99.90;;;;;;21005275;28;20031;-77
2020/12/08 07:41:31;;;;;;;43.38;16.00;;;1.00;99.90;;;;;;21004541;28;19912;-75
2020/12/08 07:51:33;;;;;;;35.72;14.75;;;0.80;99.90;;;;;;21003884;28;20168;-74
2020/12/08 08:01:44;;;;;;;33.95;14.50;;;1.60;99.90;;;;;;21001105;28;20507;-77
2020/12/08 08:11:45;;;;;;;31.33;14.37;;;1.30;99.90;;;;;;21001504;28;20028;-76
2020/12/08 08:21:45;;;;;;;;;;;1.30;99.90;;;;;;21007520;28;20130;-77
2020/12/08 08:31:46;;;;;;;41.72;17.92;;;1.60;99.90;;;;;;21016694;28;20000;-76
2020/12/08 08:41:48;;;;;;;34.53;14.03;;;1.80;99.90;;;;;;20998906;28;20028;-77
2020/12/08 08:51:49;;;;;;;34.83;14.52;;;1.50;99.90;;;;;;20995349;28;20302;-77
2020/12/08 09:01:49;;;;;;;;;;;1.50;99.90;;;;;;20996519;28;20024;-77
2020/12/08 09:11:50;;;;;;;40.55;15.52;;;1.40;99.90;;;;;;20995027;28;20015;-77
2020/12/08 09:21:54;;;;;;;;;;;1.60;99.90;;;;;;20976298;28;20064;-77
2020/12/08 09:31:56;;;;;;;36.53;15.88;;;1.70;99.90;;;;;;20993590;28;19971;-77
2020/12/08 09:41:57;;;;;;;34.88;16.02;;;1.70;99.90;;;;;;20993502;28;20028;-77
2020/12/08 09:51:58;;;;;;;;;;;2.20;99.90;;;;;;20992818;28;20029;-77
2020/12/08 10:02:03;;;;;;;45.00;17.23;;;2.20;99.90;;;;;;20995803;28;19913;-77
2020/12/08 10:12:04;;;;;;;37.72;15.88;;;2.20;99.90;;;;;;20994598;28;20032;-77
2020/12/08 10:22:05;;;;;;;;;;;2.20;99.90;;;;;;20996707;28;20024;-76
2020/12/08 10:32:06;;;;;;;47.47;17.40;;;2.40;99.90;;;;;;20994803;28;19993;-76
2020/12/08 10:42:07;;;;;;;40.25;16.80;;;2.70;99.90;;;;;;21012280;28;20033;-77
2020/12/08 10:52:08;;;;;;;;;;;3.40;99.90;;;;;;21014592;28;20028;-77
2020/12/08 11:02:10;;;;;;;47.95;17.40;;;3.80;99.90;;;;;;21004196;28;19920;-76
2020/12/08 11:12:14;;;;;;;32.67;14.38;;;3.60;99.90;;;;;;21005264;28;20032;-77
2020/12/08 11:22:15;;;;;;;33.83;16.08;;;3.30;99.90;;;;;;21004633;28;20029;-77
2020/12/08 11:32:16;;;;;;;50.13;19.07;;;3.50;99.90;;;;;;21002691;28;20064;-77
2020/12/08 11:42:17;;;;;;;36.97;15.63;;;3.50;99.90;;;;;;21002395;28;20135;-76
2020/12/08 11:52:21;;;;;;;47.57;16.43;;;3.30;99.90;;;;;;21001857;28;20048;-76
2020/12/08 12:02:22;;;;;;;33.78;14.00;;;3.40;99.90;;;;;;20981984;28;20036;-76
2020/12/08 12:12:22;;;;;;;32.10;13.83;;;3.30;99.90;;;;;;21000073;28;20035;-77
2020/12/08 12:22:26;;;;;;;29.47;13.43;;;3.30;99.90;;;;;;20999852;28;20028;-77
2020/12/08 12:32:27;;;;;;;32.25;12.82;;;3.50;99.90;;;;;;20999150;28;20060;-76
2020/12/08 12:42:27;;;;;;;34.07;14.13;;;3.60;99.90;;;;;;20998042;28;20048;-77
2020/12/08 12:52:28;;;;;;;33.87;13.83;;;3.20;99.90;;;;;;20991764;28;20450;-77
2020/12/08 13:02:29;;;;;;;30.63;12.77;;;3.10;99.90;;;;;;20999924;28;20055;-77
2020/12/08 13:12:30;;;;;;;31.30;13.30;;;3.30;99.90;;;;;;20995033;28;20034;-77
2020/12/08 13:22:31;;;;;;;32.53;16.03;;;3.30;99.90;;;;;;20994480;28;20028;-77
2020/12/08 13:32:32;;;;;;;35.33;15.47;;;3.30;99.90;;;;;;20993568;28;20047;-77
2020/12/08 13:42:32;;;;;;;32.67;14.70;;;3.10;99.90;;;;;;20975177;28;20032;-77
2020/12/08 13:52:33;;;;;;;33.53;14.73;;;3.20;99.90;;;;;;20991064;28;20028;-77
2020/12/08 14:02:34;;;;;;;40.55;15.82;;;3.10;99.90;;;;;;20991034;28;20033;-77
2020/12/08 14:12:35;;;;;;;37.13;15.35;;;2.90;99.90;;;;;;20991729;28;20438;-77
2020/12/08 14:22:37;;;;;;;46.07;18.20;;;3.00;99.90;;;;;;20968263;28;20880;-77
2020/12/08 14:32:38;;;;;;;34.00;14.13;;;2.90;99.90;;;;;;20922660;28;20385;-77
2020/12/08 14:42:39;;;;;;;33.10;14.35;;;2.90;99.90;;;;;;20983742;28;20037;-77
2020/12/08 14:52:39;;;;;;;27.27;12.88;;;2.80;99.90;;;;;;20978043;28;20144;-79
2020/12/08 15:02:40;;;;;;;27.23;13.07;;;2.70;99.90;;;;;;20976881;28;20464;-76
2020/12/08 15:12:41;;;;;;;26.70;12.93;;;2.60;99.90;;;;;;20972886;28;20570;-77
2020/12/08 15:22:42;;;;;;;30.57;13.67;;;2.60;99.90;;;;;;20983082;28;20676;-78
2020/12/08 15:32:43;;;;;;;30.87;13.67;;;2.60;99.90;;;;;;20968320;28;20056;-78
2020/12/08 15:42:43;;;;;;;30.40;14.07;;;2.60;99.90;;;;;;20942721;28;20292;-78
2020/12/08 15:52:45;;;;;;;28.60;13.73;;;2.50;99.90;;;;;;20935451;28;20116;-79
2020/12/08 16:02:46;;;;;;;63.67;22.30;;;2.50;99.90;;;;;;20906719;28;20108;-77
2020/12/08 16:12:47;;;;;;;45.83;20.63;;;2.60;99.90;;;;;;20915920;28;20570;-77
2020/12/08 16:22:48;;;;;;;33.45;14.32;;;2.50;99.90;;;;;;20906598;28;20291;-78
2020/12/08 16:32:49;;;;;;;34.00;14.93;;;2.60;99.90;;;;;;20914899;28;20040;-78
2020/12/08 16:42:50;;;;;;;36.03;15.97;;;2.50;99.90;;;;;;20915415;28;20037;-77
2020/12/08 16:52:51;;;;;;;25.35;12.50;;;2.60;99.90;;;;;;20933129;28;20025;-77
2020/12/08 17:02:54;;;;;;;27.67;13.52;;;2.60;99.90;;;;;;20974368;28;20086;-76
2020/12/08 17:12:55;;;;;;;35.28;14.95;;;2.60;99.90;;;;;;21007200;28;20052;-77
2020/12/08 17:22:56;;;;;;;;;;;2.60;99.90;;;;;;20998880;28;20037;-77
2020/12/08 17:32:56;;;;;;;35.42;14.82;;;2.60;99.90;;;;;;20961243;28;19919;-78
2020/12/08 17:42:57;;;;;;;31.23;15.30;;;2.40;99.90;;;;;;20980320;28;20045;-78
2020/12/08 17:52:58;;;;;;;33.27;14.73;;;2.60;99.90;;;;;;20975877;28;20466;-77
2020/12/08 18:02:59;;;;;;;35.85;17.25;;;2.70;99.90;;;;;;20959762;28;20067;-78
2020/12/08 18:13:00;;;;;;;34.50;15.83;;;2.60;99.90;;;;;;20966556;28;20040;-78
2020/12/08 18:23:01;;;;;;;33.83;16.60;;;2.50;99.90;;;;;;20995147;28;20040;-78
2020/12/08 18:33:02;;;;;;;44.63;17.93;;;2.50;99.90;;;;;;20984619;28;20020;-79
2020/12/08 18:43:03;;;;;;;36.35;18.23;;;2.50;99.90;;;;;;20968352;28;20020;-79
2020/12/08 18:53:04;;;;;;;43.95;19.25;;;2.40;99.90;;;;;;20971139;28;20028;-78
2020/12/08 19:03:05;;;;;;;48.92;19.38;;;2.30;99.90;;;;;;20982411;28;20051;-78
2020/12/08 19:13:06;;;;;;;42.40;19.10;;;2.30;99.90;;;;;;20989256;28;20044;-78
2020/12/08 19:23:09;;;;;;;39.70;17.17;;;2.40;99.90;;;;;;20978527;28;20280;-79
2020/12/08 19:33:10;;;;;;;40.78;17.60;;;2.30;99.90;;;;;;20977100;28;20044;-76
2020/12/08 19:43:12;;;;;;;36.28;17.27;;;2.30;99.90;;;;;;20935272;28;20029;-76
2020/12/08 19:53:13;;;;;;;36.10;17.27;;;2.40;99.90;;;;;;20920881;28;20094;-77
2020/12/08 20:03:14;;;;;;;39.43;17.87;;;2.50;99.90;;;;;;20918678;28;20377;-77
2020/12/08 20:13:14;;;;;;;37.13;17.30;;;2.50;99.90;;;;;;20916747;28;20059;-77
2020/12/08 20:23:15;;;;;;;31.87;16.47;;;2.50;99.90;;;;;;20914885;28;20025;-76
2020/12/08 20:33:16;;;;;;;47.83;16.90;;;2.50;99.90;;;;;;20931045;28;20033;-76
2020/12/08 20:43:17;;;;;;;32.00;15.20;;;2.50;99.90;;;;;;20914927;28;20039;-76
2020/12/08 20:53:18;;;;;;;43.43;19.07;;;2.30;99.90;;;;;;20925250;28;20060;-76
2020/12/08 21:03:19;;;;;;;42.77;19.33;;;2.30;99.90;;;;;;20936229;28;20079;-76
2020/12/08 21:13:20;;;;;;;47.83;21.07;;;2.20;99.90;;;;;;20915046;28;20322;-76
2020/12/08 21:23:21;;;;;;;43.28;19.45;;;2.00;99.90;;;;;;20926764;28;20083;-76
2020/12/08 21:33:21;;;;;;;;;;;1.90;99.90;;;;;;20912835;28;20041;-77
2020/12/08 21:43:22;;;;;;;55.40;23.20;;;1.80;99.90;;;;;;20965033;28;19917;-78
2020/12/08 21:53:23;;;;;;;;;;;1.70;99.90;;;;;;20935390;28;20275;-78
2020/12/08 22:03:24;;;;;;;78.05;28.20;;;1.60;99.90;;;;;;20923040;28;19999;-78
2020/12/08 22:13:25;;;;;;;71.85;27.77;;;1.60;99.90;;;;;;20934934;28;20036;-77
2020/12/08 22:23:26;;;;;;;;;;;1.60;99.90;;;;;;20941542;28;20090;-77
2020/12/08 22:33:26;;;;;;;70.07;26.35;;;1.60;99.90;;;;;;20913661;28;19948;-78
2020/12/08 22:43:27;;;;;;;;;;;1.70;99.90;;;;;;20914757;28;20224;-78
2020/12/08 22:53:28;;;;;;;81.07;27.55;;;1.70;99.90;;;;;;20913894;28;19936;-77
2020/12/08 23:03:29;;;;;;;;;;;1.70;99.90;;;;;;20911955;28;20124;-78
2020/12/08 23:13:30;;;;;;;80.83;31.57;;;1.70;99.90;;;;;;20906264;28;20379;-76
2020/12/08 23:23:31;;;;;;;68.50;28.40;;;1.70;99.90;;;;;;20905591;28;20284;-77
2020/12/08 23:33:32;;;;;;;;;;;1.70;99.90;;;;;;20912538;28;20033;-79
2020/12/08 23:43:33;;;;;;;67.50;27.88;;;1.70;99.90;;;;;;20914900;28;20302;-76
2020/12/08 23:53:34;;;;;;;;;;;1.70;99.90;;;;;;20920542;28;20040;-76
